FALRR weather

Falwell Railroad Field
Newport, Arkansas, United States

Public forecast

Using degrees Fahrenheit for public forecast. Weather courtesy of forecast.io.

METAR (pilot weather report)

Closest report is Newport Regional Airport, 10.5 nm (19.4 km) ENE. Retrieved UTC (0 seconds ago):

TAF (pilot weather forecast)

Closest forecast is Jonesboro Municipal Airport, 38.8 nm (71.8 km) ENE. Retrieved 2019/07/22 18:27 UTC (1 hour ago):

TAF KJBR 221724Z 2218/2318 34010KT P6SM VCSH SCT020 BKN060 FM222000 02008KT P6SM SCT015 BKN060 FM230600 02010KT P6SM SKC